sensor_id;sensor_type;location;lat;lon;timestamp;temperature;humidity
38582;DHT22;24349;53.720;10.014;2023-06-26T00:01:19;20.50;99.90
38582;DHT22;24349;53.720;10.014;2023-06-26T00:03:46;20.40;99.90
38582;DHT22;24349;53.720;10.014;2023-06-26T00:06:12;20.40;99.90
38582;DHT22;24349;53.720;10.014;2023-06-26T00:08:38;20.40;99.90
38582;DHT22;24349;53.720;10.014;2023-06-26T00:11:04;20.40;99.90
38582;DHT22;24349;53.720;10.014;2023-06-26T00:13:29;20.40;99.90
38582;DHT22;24349;53.720;10.014;2023-06-26T00:15:55;20.40;99.90
38582;DHT22;24349;53.720;10.014;2023-06-26T00:18:20;20.30;99.90
38582;DHT22;24349;53.720;10.014;2023-06-26T00:20:46;20.40;99.90
38582;DHT22;24349;53.720;10.014;2023-06-26T00:23:12;20.40;99.90
38582;DHT22;24349;53.720;10.014;2023-06-26T00:25:38;20.40;99.90
38582;DHT22;24349;53.720;10.014;2023-06-26T00:28:04;20.40;99.90
38582;DHT22;24349;53.720;10.014;2023-06-26T00:30:30;20.40;99.90
38582;DHT22;24349;53.720;10.014;2023-06-26T00:32:55;20.30;99.90
38582;DHT22;24349;53.720;10.014;2023-06-26T00:35:21;20.30;99.90
38582;DHT22;24349;53.720;10.014;2023-06-26T00:37:46;20.20;99.90
38582;DHT22;24349;53.720;10.014;2023-06-26T00:40:12;20.20;99.90
38582;DHT22;24349;53.720;10.014;2023-06-26T00:42:38;20.20;99.90
38582;DHT22;24349;53.720;10.014;2023-06-26T00:45:04;20.20;99.90
38582;DHT22;24349;53.720;10.014;2023-06-26T00:47:30;20.10;99.90
38582;DHT22;24349;53.720;10.014;2023-06-26T00:49:55;20.10;99.90
38582;DHT22;24349;53.720;10.014;2023-06-26T00:52:21;20.00;99.90
38582;DHT22;24349;53.720;10.014;2023-06-26T00:54:49;20.00;99.90
38582;DHT22;24349;53.720;10.014;2023-06-26T00:57:17;20.00;99.90
38582;DHT22;24349;53.720;10.014;2023-06-26T00:59:42;20.00;99.90
38582;DHT22;24349;53.720;10.014;2023-06-26T01:02:08;19.90;99.90
38582;DHT22;24349;53.720;10.014;2023-06-26T01:04:35;19.90;99.90
38582;DHT22;24349;53.720;10.014;2023-06-26T01:07:01;19.90;99.90
38582;DHT22;24349;53.720;10.014;2023-06-26T01:09:27;19.90;99.90
38582;DHT22;24349;53.720;10.014;2023-06-26T01:11:53;19.90;99.90
38582;DHT22;24349;53.720;10.014;2023-06-26T01:14:19;19.80;99.90
38582;DHT22;24349;53.720;10.014;2023-06-26T01:16:45;19.80;99.90
38582;DHT22;24349;53.720;10.014;2023-06-26T01:19:28;19.80;99.90
38582;DHT22;24349;53.720;10.014;2023-06-26T01:25:07;19.70;99.90
38582;DHT22;24349;53.720;10.014;2023-06-26T01:27:36;19.70;99.90
38582;DHT22;24349;53.720;10.014;2023-06-26T01:30:03;19.70;99.90
38582;DHT22;24349;53.720;10.014;2023-06-26T01:32:31;19.60;99.90
38582;DHT22;24349;53.720;10.014;2023-06-26T01:34:58;19.60;99.90
38582;DHT22;24349;53.720;10.014;2023-06-26T01:37:24;19.70;99.90
38582;DHT22;24349;53.720;10.014;2023-06-26T01:39:50;19.60;99.90
38582;DHT22;24349;53.720;10.014;2023-06-26T01:42:15;19.60;99.90
38582;DHT22;24349;53.720;10.014;2023-06-26T01:44:45;19.60;99.90
38582;DHT22;24349;53.720;10.014;2023-06-26T01:47:15;19.50;99.90
38582;DHT22;24349;53.720;10.014;2023-06-26T01:50:02;19.60;99.90
38582;DHT22;24349;53.720;10.014;2023-06-26T01:52:42;19.60;99.90
38582;DHT22;24349;53.720;10.014;2023-06-26T01:58:01;19.50;99.90
38582;DHT22;24349;53.720;10.014;2023-06-26T02:00:28;19.50;99.90
38582;DHT22;24349;53.720;10.014;2023-06-26T02:02:54;19.50;99.90
38582;DHT22;24349;53.720;10.014;2023-06-26T02:05:19;19.50;99.90
38582;DHT22;24349;53.720;10.014;2023-06-26T02:07:45;19.50;99.90
38582;DHT22;24349;53.720;10.014;2023-06-26T02:10:11;19.50;99.90
38582;DHT22;24349;53.720;10.014;2023-06-26T02:12:37;19.50;99.90
38582;DHT22;24349;53.720;10.014;2023-06-26T02:15:03;19.50;99.90
38582;DHT22;24349;53.720;10.014;2023-06-26T02:17:29;19.50;99.90
38582;DHT22;24349;53.720;10.014;2023-06-26T02:19:55;19.50;99.90
38582;DHT22;24349;53.720;10.014;2023-06-26T02:22:21;19.50;99.90
38582;DHT22;24349;53.720;10.014;2023-06-26T02:24:46;19.50;99.90
38582;DHT22;24349;53.720;10.014;2023-06-26T02:27:12;19.50;99.90
38582;DHT22;24349;53.720;10.014;2023-06-26T02:29:39;19.50;99.90
38582;DHT22;24349;53.720;10.014;2023-06-26T02:32:05;19.50;99.90
38582;DHT22;24349;53.720;10.014;2023-06-26T02:34:31;19.50;99.90
38582;DHT22;24349;53.720;10.014;2023-06-26T02:36:57;19.50;99.90
38582;DHT22;24349;53.720;10.014;2023-06-26T02:39:24;19.50;99.90
38582;DHT22;24349;53.720;10.014;2023-06-26T02:41:49;19.50;99.90
38582;DHT22;24349;53.720;10.014;2023-06-26T02:44:15;19.50;99.90
38582;DHT22;24349;53.720;10.014;2023-06-26T02:46:41;19.50;99.90
38582;DHT22;24349;53.720;10.014;2023-06-26T02:49:07;19.50;99.90
38582;DHT22;24349;53.720;10.014;2023-06-26T02:51:33;19.50;99.90
38582;DHT22;24349;53.720;10.014;2023-06-26T02:53:59;19.50;99.90
38582;DHT22;24349;53.720;10.014;2023-06-26T02:56:25;19.50;99.90
38582;DHT22;24349;53.720;10.014;2023-06-26T02:58:57;19.50;99.90
38582;DHT22;24349;53.720;10.014;2023-06-26T03:01:23;19.50;99.90
38582;DHT22;24349;53.720;10.014;2023-06-26T03:03:49;19.50;99.90
38582;DHT22;24349;53.720;10.014;2023-06-26T03:06:15;19.50;99.90
38582;DHT22;24349;53.720;10.014;2023-06-26T03:08:41;19.50;99.90
38582;DHT22;24349;53.720;10.014;2023-06-26T03:11:08;19.50;99.90
38582;DHT22;24349;53.720;10.014;2023-06-26T03:13:36;19.60;99.90
38582;DHT22;24349;53.720;10.014;2023-06-26T03:16:03;19.50;99.90
38582;DHT22;24349;53.720;10.014;2023-06-26T03:18:29;19.60;99.90
38582;DHT22;24349;53.720;10.014;2023-06-26T03:20:58;19.60;99.90
38582;DHT22;24349;53.720;10.014;2023-06-26T03:23:25;19.60;99.90
38582;DHT22;24349;53.720;10.014;2023-06-26T03:25:51;19.60;99.90
38582;DHT22;24349;53.720;10.014;2023-06-26T03:28:16;19.60;99.90
38582;DHT22;24349;53.720;10.014;2023-06-26T03:30:42;19.60;99.90
38582;DHT22;24349;53.720;10.014;2023-06-26T03:33:08;19.60;99.90
38582;DHT22;24349;53.720;10.014;2023-06-26T03:35:34;19.70;99.90
38582;DHT22;24349;53.720;10.014;2023-06-26T03:37:59;19.60;99.90
38582;DHT22;24349;53.720;10.014;2023-06-26T03:40:26;19.70;99.90
38582;DHT22;24349;53.720;10.014;2023-06-26T03:42:51;19.70;99.90
38582;DHT22;24349;53.720;10.014;2023-06-26T03:45:17;19.80;99.90
38582;DHT22;24349;53.720;10.014;2023-06-26T03:47:44;19.80;99.90
38582;DHT22;24349;53.720;10.014;2023-06-26T03:50:12;19.90;99.90
38582;DHT22;24349;53.720;10.014;2023-06-26T03:52:38;19.90;99.90
38582;DHT22;24349;53.720;10.014;2023-06-26T03:55:04;19.90;99.90
38582;DHT22;24349;53.720;10.014;2023-06-26T03:57:29;19.90;99.90
38582;DHT22;24349;53.720;10.014;2023-06-26T03:59:55;19.90;99.90
38582;DHT22;24349;53.720;10.014;2023-06-26T04:02:20;20.00;99.90
38582;DHT22;24349;53.720;10.014;2023-06-26T04:04:46;20.00;99.90
38582;DHT22;24349;53.720;10.014;2023-06-26T04:07:11;20.00;99.90
38582;DHT22;24349;53.720;10.014;2023-06-26T04:09:37;20.10;99.90
38582;DHT22;24349;53.720;10.014;2023-06-26T04:12:03;20.20;99.90
38582;DHT22;24349;53.720;10.014;2023-06-26T04:14:29;20.20;99.90
38582;DHT22;24349;53.720;10.014;2023-06-26T04:16:55;20.30;99.90
38582;DHT22;24349;53.720;10.014;2023-06-26T04:19:20;20.40;99.90
38582;DHT22;24349;53.720;10.014;2023-06-26T04:21:46;20.40;99.90
38582;DHT22;24349;53.720;10.014;2023-06-26T04:24:11;20.40;99.90
38582;DHT22;24349;53.720;10.014;2023-06-26T04:26:37;20.50;99.90
38582;DHT22;24349;53.720;10.014;2023-06-26T04:29:06;20.60;99.90
38582;DHT22;24349;53.720;10.014;2023-06-26T04:31:32;20.60;99.90
38582;DHT22;24349;53.720;10.014;2023-06-26T04:33:57;20.70;99.90
38582;DHT22;24349;53.720;10.014;2023-06-26T04:36:25;20.80;99.90
38582;DHT22;24349;53.720;10.014;2023-06-26T04:38:56;20.90;99.90
38582;DHT22;24349;53.720;10.014;2023-06-26T04:41:22;21.00;99.90
38582;DHT22;24349;53.720;10.014;2023-06-26T04:43:48;21.10;99.90
38582;DHT22;24349;53.720;10.014;2023-06-26T04:46:13;21.10;99.90
38582;DHT22;24349;53.720;10.014;2023-06-26T04:48:39;21.20;99.90
38582;DHT22;24349;53.720;10.014;2023-06-26T04:51:05;21.30;99.90
38582;DHT22;24349;53.720;10.014;2023-06-26T04:53:30;21.40;99.90
38582;DHT22;24349;53.720;10.014;2023-06-26T04:55:56;21.40;99.90
38582;DHT22;24349;53.720;10.014;2023-06-26T04:58:21;21.50;99.90
38582;DHT22;24349;53.720;10.014;2023-06-26T05:00:47;21.70;99.90
38582;DHT22;24349;53.720;10.014;2023-06-26T05:03:15;21.80;99.90
38582;DHT22;24349;53.720;10.014;2023-06-26T05:05:42;21.90;99.90
38582;DHT22;24349;53.720;10.014;2023-06-26T05:08:22;22.00;99.90
38582;DHT22;24349;53.720;10.014;2023-06-26T05:10:48;22.00;99.90
38582;DHT22;24349;53.720;10.014;2023-06-26T05:13:14;22.10;99.90
38582;DHT22;24349;53.720;10.014;2023-06-26T05:15:43;22.10;99.90
38582;DHT22;24349;53.720;10.014;2023-06-26T05:18:09;22.10;99.90
38582;DHT22;24349;53.720;10.014;2023-06-26T05:20:35;22.40;99.90
38582;DHT22;24349;53.720;10.014;2023-06-26T05:23:05;22.40;99.90
38582;DHT22;24349;53.720;10.014;2023-06-26T05:25:31;22.50;99.90
38582;DHT22;24349;53.720;10.014;2023-06-26T05:27:57;22.60;99.90
38582;DHT22;24349;53.720;10.014;2023-06-26T05:30:26;22.70;99.90
38582;DHT22;24349;53.720;10.014;2023-06-26T05:32:55;22.60;99.90
38582;DHT22;24349;53.720;10.014;2023-06-26T05:35:22;22.70;99.90
38582;DHT22;24349;53.720;10.014;2023-06-26T05:37:50;22.90;99.90
38582;DHT22;24349;53.720;10.014;2023-06-26T05:40:17;23.30;99.90
38582;DHT22;24349;53.720;10.014;2023-06-26T05:42:44;23.20;99.90
38582;DHT22;24349;53.720;10.014;2023-06-26T05:45:10;23.30;99.90
38582;DHT22;24349;53.720;10.014;2023-06-26T05:47:36;23.50;99.90
38582;DHT22;24349;53.720;10.014;2023-06-26T05:50:03;23.70;99.90
38582;DHT22;24349;53.720;10.014;2023-06-26T05:52:29;23.70;99.90
38582;DHT22;24349;53.720;10.014;2023-06-26T05:54:56;23.80;99.90
38582;DHT22;24349;53.720;10.014;2023-06-26T05:57:28;23.80;99.90
38582;DHT22;24349;53.720;10.014;2023-06-26T05:59:55;23.90;99.90
38582;DHT22;24349;53.720;10.014;2023-06-26T06:02:22;24.00;99.90
38582;DHT22;24349;53.720;10.014;2023-06-26T06:04:48;23.90;99.90
38582;DHT22;24349;53.720;10.014;2023-06-26T06:07:14;23.90;99.90
38582;DHT22;24349;53.720;10.014;2023-06-26T06:09:39;24.10;99.90
38582;DHT22;24349;53.720;10.014;2023-06-26T06:12:06;24.30;99.90
38582;DHT22;24349;53.720;10.014;2023-06-26T06:14:32;24.60;99.90
38582;DHT22;24349;53.720;10.014;2023-06-26T06:16:58;24.80;99.90
38582;DHT22;24349;53.720;10.014;2023-06-26T06:19:23;24.70;99.90
38582;DHT22;24349;53.720;10.014;2023-06-26T06:21:49;24.90;99.90
38582;DHT22;24349;53.720;10.014;2023-06-26T06:24:15;25.00;99.90
38582;DHT22;24349;53.720;10.014;2023-06-26T06:26:40;25.20;99.90
38582;DHT22;24349;53.720;10.014;2023-06-26T06:29:06;25.50;99.90
38582;DHT22;24349;53.720;10.014;2023-06-26T06:31:32;25.90;99.90
38582;DHT22;24349;53.720;10.014;2023-06-26T06:33:57;25.90;99.90
38582;DHT22;24349;53.720;10.014;2023-06-26T06:36:23;26.40;99.90
38582;DHT22;24349;53.720;10.014;2023-06-26T06:38:49;26.50;99.90
38582;DHT22;24349;53.720;10.014;2023-06-26T06:41:14;26.30;99.90
38582;DHT22;24349;53.720;10.014;2023-06-26T06:43:40;27.00;99.90
38582;DHT22;24349;53.720;10.014;2023-06-26T06:46:06;27.40;99.90
38582;DHT22;24349;53.720;10.014;2023-06-26T06:48:32;27.10;99.90
38582;DHT22;24349;53.720;10.014;2023-06-26T06:50:58;27.00;99.90
38582;DHT22;24349;53.720;10.014;2023-06-26T06:53:23;26.80;99.90
38582;DHT22;24349;53.720;10.014;2023-06-26T06:55:49;26.50;99.90
38582;DHT22;24349;53.720;10.014;2023-06-26T06:58:15;26.40;99.90
38582;DHT22;24349;53.720;10.014;2023-06-26T07:00:42;26.20;99.90
38582;DHT22;24349;53.720;10.014;2023-06-26T07:03:08;26.70;99.90
38582;DHT22;24349;53.720;10.014;2023-06-26T07:05:35;27.30;99.90
38582;DHT22;24349;53.720;10.014;2023-06-26T07:08:01;27.30;99.90
38582;DHT22;24349;53.720;10.014;2023-06-26T07:10:27;27.90;99.90
38582;DHT22;24349;53.720;10.014;2023-06-26T07:12:52;28.40;99.90
38582;DHT22;24349;53.720;10.014;2023-06-26T07:15:18;28.40;99.90
38582;DHT22;24349;53.720;10.014;2023-06-26T07:17:44;28.80;99.90
38582;DHT22;24349;53.720;10.014;2023-06-26T07:20:10;28.60;99.90
38582;DHT22;24349;53.720;10.014;2023-06-26T07:22:40;28.50;99.90
38582;DHT22;24349;53.720;10.014;2023-06-26T07:25:07;28.70;99.90
38582;DHT22;24349;53.720;10.014;2023-06-26T07:27:36;28.50;99.90
38582;DHT22;24349;53.720;10.014;2023-06-26T07:30:02;28.60;99.90
38582;DHT22;24349;53.720;10.014;2023-06-26T07:32:28;28.80;99.90
38582;DHT22;24349;53.720;10.014;2023-06-26T07:34:54;29.30;99.90
38582;DHT22;24349;53.720;10.014;2023-06-26T07:37:20;29.10;99.90
38582;DHT22;24349;53.720;10.014;2023-06-26T07:39:45;29.00;99.90
38582;DHT22;24349;53.720;10.014;2023-06-26T07:42:11;29.30;99.90
38582;DHT22;24349;53.720;10.014;2023-06-26T07:44:37;29.00;99.90
38582;DHT22;24349;53.720;10.014;2023-06-26T07:47:02;28.80;99.90
38582;DHT22;24349;53.720;10.014;2023-06-26T07:49:29;29.10;99.90
38582;DHT22;24349;53.720;10.014;2023-06-26T07:51:54;29.20;99.90
38582;DHT22;24349;53.720;10.014;2023-06-26T07:54:20;29.10;99.90
38582;DHT22;24349;53.720;10.014;2023-06-26T07:57:12;29.70;99.90
38582;DHT22;24349;53.720;10.014;2023-06-26T07:59:38;29.60;99.90
38582;DHT22;24349;53.720;10.014;2023-06-26T08:02:04;29.60;99.90
38582;DHT22;24349;53.720;10.014;2023-06-26T08:04:30;29.10;99.90
38582;DHT22;24349;53.720;10.014;2023-06-26T08:06:58;28.90;99.90
38582;DHT22;24349;53.720;10.014;2023-06-26T08:09:26;28.60;99.90
38582;DHT22;24349;53.720;10.014;2023-06-26T08:11:52;28.60;99.90
38582;DHT22;24349;53.720;10.014;2023-06-26T08:14:18;28.30;99.90
38582;DHT22;24349;53.720;10.014;2023-06-26T08:16:44;28.40;99.90
38582;DHT22;24349;53.720;10.014;2023-06-26T08:19:13;28.50;99.90
38582;DHT22;24349;53.720;10.014;2023-06-26T08:21:40;28.30;99.90
38582;DHT22;24349;53.720;10.014;2023-06-26T08:24:06;28.10;99.90
38582;DHT22;24349;53.720;10.014;2023-06-26T08:26:32;28.40;99.90
38582;DHT22;24349;53.720;10.014;2023-06-26T08:28:57;28.70;99.90
38582;DHT22;24349;53.720;10.014;2023-06-26T08:31:23;28.80;99.90
38582;DHT22;24349;53.720;10.014;2023-06-26T08:33:49;28.80;99.90
38582;DHT22;24349;53.720;10.014;2023-06-26T08:36:15;28.80;99.90
38582;DHT22;24349;53.720;10.014;2023-06-26T08:38:40;28.70;99.90
38582;DHT22;24349;53.720;10.014;2023-06-26T08:41:09;28.30;99.90
38582;DHT22;24349;53.720;10.014;2023-06-26T08:43:35;28.30;99.90
38582;DHT22;24349;53.720;10.014;2023-06-26T08:46:02;28.50;99.90
38582;DHT22;24349;53.720;10.014;2023-06-26T08:48:31;28.30;99.90
38582;DHT22;24349;53.720;10.014;2023-06-26T08:51:01;28.40;99.90
38582;DHT22;24349;53.720;10.014;2023-06-26T08:53:56;28.40;99.90
38582;DHT22;24349;53.720;10.014;2023-06-26T08:56:19;28.20;99.90
38582;DHT22;24349;53.720;10.014;2023-06-26T08:58:47;28.20;99.90
38582;DHT22;24349;53.720;10.014;2023-06-26T09:01:13;28.30;99.90
38582;DHT22;24349;53.720;10.014;2023-06-26T09:03:39;28.20;99.90
38582;DHT22;24349;53.720;10.014;2023-06-26T09:06:07;27.90;99.90
38582;DHT22;24349;53.720;10.014;2023-06-26T09:08:32;28.00;99.90
38582;DHT22;24349;53.720;10.014;2023-06-26T09:10:58;28.00;99.90
38582;DHT22;24349;53.720;10.014;2023-06-26T09:13:24;28.20;99.90
38582;DHT22;24349;53.720;10.014;2023-06-26T09:15:53;28.20;99.90
38582;DHT22;24349;53.720;10.014;2023-06-26T09:18:21;28.50;99.90
38582;DHT22;24349;53.720;10.014;2023-06-26T09:20:47;28.50;99.90
38582;DHT22;24349;53.720;10.014;2023-06-26T09:23:13;28.60;99.90
38582;DHT22;24349;53.720;10.014;2023-06-26T09:25:40;28.60;99.90
38582;DHT22;24349;53.720;10.014;2023-06-26T09:28:06;28.30;99.90
38582;DHT22;24349;53.720;10.014;2023-06-26T09:30:35;28.00;99.90
38582;DHT22;24349;53.720;10.014;2023-06-26T09:33:15;27.90;99.90
38582;DHT22;24349;53.720;10.014;2023-06-26T09:35:41;28.10;99.90
38582;DHT22;24349;53.720;10.014;2023-06-26T09:38:07;27.80;99.90
38582;DHT22;24349;53.720;10.014;2023-06-26T09:40:33;27.00;99.90
38582;DHT22;24349;53.720;10.014;2023-06-26T09:43:04;26.20;99.90
38582;DHT22;24349;53.720;10.014;2023-06-26T09:45:34;25.70;99.90
38582;DHT22;24349;53.720;10.014;2023-06-26T09:48:04;25.20;99.90
38582;DHT22;24349;53.720;10.014;2023-06-26T09:50:32;25.10;1.00
38582;DHT22;24349;53.720;10.014;2023-06-26T09:53:17;25.10;1.00
38582;DHT22;24349;53.720;10.014;2023-06-26T09:55:44;25.00;99.90
38582;DHT22;24349;53.720;10.014;2023-06-26T09:58:13;24.90;35.10
38582;DHT22;24349;53.720;10.014;2023-06-26T10:00:41;24.90;99.90
38582;DHT22;24349;53.720;10.014;2023-06-26T10:03:08;24.70;99.90
38582;DHT22;24349;53.720;10.014;2023-06-26T10:05:33;24.70;99.90
38582;DHT22;24349;53.720;10.014;2023-06-26T10:07:59;24.60;99.90
38582;DHT22;24349;53.720;10.014;2023-06-26T10:10:27;24.30;99.90
38582;DHT22;24349;53.720;10.014;2023-06-26T10:12:59;24.10;1.00
38582;DHT22;24349;53.720;10.014;2023-06-26T10:15:27;24.10;1.00
38582;DHT22;24349;53.720;10.014;2023-06-26T10:17:56;24.10;1.00
38582;DHT22;24349;53.720;10.014;2023-06-26T10:20:22;23.90;30.90
38582;DHT22;24349;53.720;10.014;2023-06-26T10:22:48;23.70;83.00
38582;DHT22;24349;53.720;10.014;2023-06-26T10:25:18;23.30;99.90
38582;DHT22;24349;53.720;10.014;2023-06-26T10:28:00;23.00;99.90
38582;DHT22;24349;53.720;10.014;2023-06-26T10:30:31;22.60;99.90
38582;DHT22;24349;53.720;10.014;2023-06-26T10:32:59;22.40;99.90
38582;DHT22;24349;53.720;10.014;2023-06-26T10:35:25;22.30;99.90
38582;DHT22;24349;53.720;10.014;2023-06-26T10:38:03;22.20;99.90
38582;DHT22;24349;53.720;10.014;2023-06-26T10:40:44;22.20;99.90
38582;DHT22;24349;53.720;10.014;2023-06-26T10:43:12;22.10;99.90
38582;DHT22;24349;53.720;10.014;2023-06-26T10:45:44;21.80;99.90
38582;DHT22;24349;53.720;10.014;2023-06-26T10:48:09;21.40;99.90
38582;DHT22;24349;53.720;10.014;2023-06-26T10:50:35;21.30;99.90
38582;DHT22;24349;53.720;10.014;2023-06-26T10:53:11;21.20;99.90
38582;DHT22;24349;53.720;10.014;2023-06-26T10:55:44;21.20;99.90
38582;DHT22;24349;53.720;10.014;2023-06-26T11:04:03;21.90;99.90
38582;DHT22;24349;53.720;10.014;2023-06-26T11:06:29;22.10;99.90
38582;DHT22;24349;53.720;10.014;2023-06-26T11:14:19;23.60;99.90
38582;DHT22;24349;53.720;10.014;2023-06-26T11:16:45;23.40;99.90
38582;DHT22;24349;53.720;10.014;2023-06-26T11:19:12;23.20;99.90
38582;DHT22;24349;53.720;10.014;2023-06-26T11:21:38;23.40;99.90
38582;DHT22;24349;53.720;10.014;2023-06-26T11:24:08;24.20;99.90
38582;DHT22;24349;53.720;10.014;2023-06-26T11:26:44;24.50;99.90
38582;DHT22;24349;53.720;10.014;2023-06-26T11:29:10;24.70;99.90
38582;DHT22;24349;53.720;10.014;2023-06-26T11:31:38;25.00;99.90
38582;DHT22;24349;53.720;10.014;2023-06-26T11:34:05;25.30;99.90
38582;DHT22;24349;53.720;10.014;2023-06-26T11:36:32;25.50;99.90
38582;DHT22;24349;53.720;10.014;2023-06-26T11:39:04;25.20;99.90
38582;DHT22;24349;53.720;10.014;2023-06-26T11:41:34;24.70;99.90
38582;DHT22;24349;53.720;10.014;2023-06-26T11:44:04;24.10;99.90
38582;DHT22;24349;53.720;10.014;2023-06-26T11:46:31;24.00;99.90
38582;DHT22;24349;53.720;10.014;2023-06-26T11:48:57;24.10;99.90
38582;DHT22;24349;53.720;10.014;2023-06-26T11:51:22;23.90;99.90
38582;DHT22;24349;53.720;10.014;2023-06-26T11:53:49;24.20;99.90
38582;DHT22;24349;53.720;10.014;2023-06-26T11:56:16;25.00;99.90
38582;DHT22;24349;53.720;10.014;2023-06-26T11:58:58;25.40;99.90
38582;DHT22;24349;53.720;10.014;2023-06-26T12:01:34;24.90;99.90
38582;DHT22;24349;53.720;10.014;2023-06-26T12:04:02;25.00;99.90
38582;DHT22;24349;53.720;10.014;2023-06-26T12:06:30;25.30;99.90
38582;DHT22;24349;53.720;10.014;2023-06-26T12:08:59;25.80;99.90
38582;DHT22;24349;53.720;10.014;2023-06-26T12:11:25;26.30;99.90
38582;DHT22;24349;53.720;10.014;2023-06-26T12:13:52;26.50;99.90
38582;DHT22;24349;53.720;10.014;2023-06-26T12:16:18;26.50;99.90
38582;DHT22;24349;53.720;10.014;2023-06-26T12:18:44;26.50;99.90
38582;DHT22;24349;53.720;10.014;2023-06-26T12:21:28;26.30;99.90
38582;DHT22;24349;53.720;10.014;2023-06-26T12:24:00;26.40;99.90
38582;DHT22;24349;53.720;10.014;2023-06-26T12:26:27;26.00;99.90
38582;DHT22;24349;53.720;10.014;2023-06-26T12:29:06;25.80;99.90
38582;DHT22;24349;53.720;10.014;2023-06-26T12:31:32;25.90;99.90
38582;DHT22;24349;53.720;10.014;2023-06-26T12:33:59;26.40;99.90
38582;DHT22;24349;53.720;10.014;2023-06-26T12:36:25;26.60;99.90
38582;DHT22;24349;53.720;10.014;2023-06-26T12:38:53;26.90;99.90
38582;DHT22;24349;53.720;10.014;2023-06-26T12:41:18;27.00;99.90
38582;DHT22;24349;53.720;10.014;2023-06-26T12:43:46;26.90;99.90
38582;DHT22;24349;53.720;10.014;2023-06-26T12:46:12;26.70;99.90
38582;DHT22;24349;53.720;10.014;2023-06-26T12:48:42;26.40;99.90
38582;DHT22;24349;53.720;10.014;2023-06-26T12:51:18;26.30;99.90
38582;DHT22;24349;53.720;10.014;2023-06-26T12:53:44;26.50;99.90
38582;DHT22;24349;53.720;10.014;2023-06-26T12:56:10;26.30;99.90
38582;DHT22;24349;53.720;10.014;2023-06-26T12:58:37;26.40;99.90
38582;DHT22;24349;53.720;10.014;2023-06-26T13:01:04;26.80;99.90
38582;DHT22;24349;53.720;10.014;2023-06-26T13:03:30;26.60;99.90
38582;DHT22;24349;53.720;10.014;2023-06-26T13:05:55;26.60;99.90
38582;DHT22;24349;53.720;10.014;2023-06-26T13:08:21;26.60;99.90
38582;DHT22;24349;53.720;10.014;2023-06-26T13:10:46;26.40;99.90
38582;DHT22;24349;53.720;10.014;2023-06-26T13:13:12;26.40;99.90
38582;DHT22;24349;53.720;10.014;2023-06-26T13:15:38;26.10;99.90
38582;DHT22;24349;53.720;10.014;2023-06-26T13:18:03;26.00;99.90
38582;DHT22;24349;53.720;10.014;2023-06-26T13:20:29;25.70;99.90
38582;DHT22;24349;53.720;10.014;2023-06-26T13:22:55;25.60;99.90
38582;DHT22;24349;53.720;10.014;2023-06-26T13:25:21;25.50;99.90
38582;DHT22;24349;53.720;10.014;2023-06-26T13:27:48;25.70;99.90
38582;DHT22;24349;53.720;10.014;2023-06-26T13:30:14;25.30;99.90
38582;DHT22;24349;53.720;10.014;2023-06-26T13:32:39;25.40;99.90
38582;DHT22;24349;53.720;10.014;2023-06-26T13:35:05;25.80;99.90
38582;DHT22;24349;53.720;10.014;2023-06-26T13:37:31;26.00;99.90
38582;DHT22;24349;53.720;10.014;2023-06-26T13:40:00;25.80;99.90
38582;DHT22;24349;53.720;10.014;2023-06-26T13:42:27;25.60;99.90
38582;DHT22;24349;53.720;10.014;2023-06-26T13:44:53;25.40;99.90
38582;DHT22;24349;53.720;10.014;2023-06-26T13:47:19;25.30;99.90
38582;DHT22;24349;53.720;10.014;2023-06-26T13:49:44;25.50;99.90
38582;DHT22;24349;53.720;10.014;2023-06-26T13:52:10;25.20;99.90
38582;DHT22;24349;53.720;10.014;2023-06-26T13:54:36;24.90;99.90
38582;DHT22;24349;53.720;10.014;2023-06-26T13:57:05;24.80;99.90
38582;DHT22;24349;53.720;10.014;2023-06-26T13:59:31;25.20;99.90
38582;DHT22;24349;53.720;10.014;2023-06-26T14:01:56;25.60;99.90
38582;DHT22;24349;53.720;10.014;2023-06-26T14:04:22;25.70;99.90
38582;DHT22;24349;53.720;10.014;2023-06-26T14:06:48;25.60;99.90
38582;DHT22;24349;53.720;10.014;2023-06-26T14:09:14;25.80;99.90
38582;DHT22;24349;53.720;10.014;2023-06-26T14:11:39;25.60;99.90
38582;DHT22;24349;53.720;10.014;2023-06-26T14:14:05;25.40;99.90
38582;DHT22;24349;53.720;10.014;2023-06-26T14:16:32;25.10;99.90
38582;DHT22;24349;53.720;10.014;2023-06-26T14:18:58;24.70;99.90
38582;DHT22;24349;53.720;10.014;2023-06-26T14:21:24;24.50;99.90
38582;DHT22;24349;53.720;10.014;2023-06-26T14:23:49;24.40;99.90
38582;DHT22;24349;53.720;10.014;2023-06-26T14:26:15;24.50;99.90
38582;DHT22;24349;53.720;10.014;2023-06-26T14:28:41;24.40;99.90
38582;DHT22;24349;53.720;10.014;2023-06-26T14:31:06;24.40;99.90
38582;DHT22;24349;53.720;10.014;2023-06-26T14:33:32;24.90;99.90
38582;DHT22;24349;53.720;10.014;2023-06-26T14:35:57;25.10;99.90
38582;DHT22;24349;53.720;10.014;2023-06-26T14:38:23;25.20;99.90
38582;DHT22;24349;53.720;10.014;2023-06-26T14:40:49;25.60;99.90
38582;DHT22;24349;53.720;10.014;2023-06-26T14:43:14;25.70;99.90
38582;DHT22;24349;53.720;10.014;2023-06-26T14:45:41;25.50;99.90
38582;DHT22;24349;53.720;10.014;2023-06-26T14:48:07;25.20;99.90
38582;DHT22;24349;53.720;10.014;2023-06-26T14:50:32;24.80;99.90
38582;DHT22;24349;53.720;10.014;2023-06-26T14:52:58;24.50;99.90
38582;DHT22;24349;53.720;10.014;2023-06-26T14:55:24;24.30;99.90
38582;DHT22;24349;53.720;10.014;2023-06-26T14:57:50;24.20;99.90
38582;DHT22;24349;53.720;10.014;2023-06-26T15:00:16;24.00;99.90
38582;DHT22;24349;53.720;10.014;2023-06-26T15:02:41;23.70;99.90
38582;DHT22;24349;53.720;10.014;2023-06-26T15:05:08;23.80;99.90
38582;DHT22;24349;53.720;10.014;2023-06-26T15:07:33;23.90;99.90
38582;DHT22;24349;53.720;10.014;2023-06-26T15:09:59;23.60;99.90
38582;DHT22;24349;53.720;10.014;2023-06-26T15:12:25;23.30;99.90
38582;DHT22;24349;53.720;10.014;2023-06-26T15:14:52;23.10;99.90
38582;DHT22;24349;53.720;10.014;2023-06-26T15:17:18;23.30;99.90
38582;DHT22;24349;53.720;10.014;2023-06-26T15:19:44;23.50;99.90
38582;DHT22;24349;53.720;10.014;2023-06-26T15:22:09;23.90;99.90
38582;DHT22;24349;53.720;10.014;2023-06-26T15:24:35;23.80;99.90
38582;DHT22;24349;53.720;10.014;2023-06-26T15:27:00;23.90;99.90
38582;DHT22;24349;53.720;10.014;2023-06-26T15:29:26;23.90;99.90
38582;DHT22;24349;53.720;10.014;2023-06-26T15:31:52;23.80;99.90